createdAt,value
2017-09-27T00:02:10.585Z,15.41
2017-09-27T00:04:38.059Z,15.45
2017-09-27T00:07:05.552Z,15.52
2017-09-27T00:09:33.053Z,15.57
2017-09-27T00:12:00.537Z,15.53
2017-09-27T00:14:28.009Z,15.43
2017-09-27T00:16:55.509Z,15.33
2017-09-27T00:19:22.985Z,15.17
2017-09-27T00:21:50.481Z,15.12
2017-09-27T00:24:18.002Z,15.12
2017-09-27T00:26:45.479Z,15.07
2017-09-27T00:29:13.034Z,15.07
2017-09-27T00:31:40.516Z,15.06
2017-09-27T00:34:08.034Z,15.11
2017-09-27T00:36:35.537Z,15.10
2017-09-27T00:39:03.029Z,14.96
2017-09-27T00:41:30.517Z,14.83
2017-09-27T00:43:58.008Z,14.78
2017-09-27T00:46:25.485Z,14.80
2017-09-27T00:48:52.941Z,14.79
2017-09-27T00:51:20.440Z,14.79
2017-09-27T00:53:47.909Z,14.77
2017-09-27T00:56:15.403Z,14.71
2017-09-27T00:58:42.885Z,14.66
2017-09-27T01:01:10.366Z,14.62
2017-09-27T01:03:37.835Z,14.63
2017-09-27T01:06:05.326Z,14.40
2017-09-27T01:08:32.821Z,14.61
2017-09-27T01:11:01.157Z,14.64
2017-09-27T01:13:28.709Z,14.54
2017-09-27T01:15:56.179Z,14.57
2017-09-27T01:18:23.673Z,14.55
2017-09-27T01:20:51.146Z,14.59
2017-09-27T01:23:18.637Z,14.64
2017-09-27T01:25:46.095Z,14.64
2017-09-27T01:28:13.574Z,14.78
2017-09-27T01:30:41.101Z,14.72
2017-09-27T01:33:08.554Z,14.69
2017-09-27T01:35:36.109Z,14.63
2017-09-27T01:38:03.572Z,14.53
2017-09-27T01:40:31.060Z,14.53
2017-09-27T01:42:58.545Z,14.47
2017-09-27T01:45:26.035Z,14.44
2017-09-27T01:47:53.537Z,14.39
2017-09-27T01:50:21.021Z,14.47
2017-09-27T01:52:48.543Z,14.61
2017-09-27T01:55:16.005Z,14.56
2017-09-27T01:57:43.484Z,14.38
2017-09-27T02:00:10.929Z,14.42
2017-09-27T02:02:38.437Z,14.43
2017-09-27T02:05:05.900Z,14.40
2017-09-27T02:07:33.399Z,14.39
2017-09-27T02:10:00.912Z,14.37
2017-09-27T02:12:28.403Z,14.23
2017-09-27T02:14:55.911Z,14.27
2017-09-27T02:17:23.369Z,14.33
2017-09-27T02:19:50.965Z,14.40
2017-09-27T02:22:18.452Z,14.35
2017-09-27T02:24:45.912Z,14.35
2017-09-27T02:27:13.416Z,14.36
2017-09-27T02:29:40.868Z,14.36
2017-09-27T02:32:08.345Z,14.29
2017-09-27T02:34:35.835Z,14.30
2017-09-27T02:37:03.352Z,14.28
2017-09-27T02:39:30.821Z,14.31
2017-09-27T02:41:58.297Z,14.28
2017-09-27T02:44:25.760Z,14.26
2017-09-27T02:46:53.247Z,14.34
2017-09-27T02:49:20.737Z,14.32
2017-09-27T02:51:48.208Z,14.27
2017-09-27T02:54:15.704Z,14.28
2017-09-27T02:56:43.184Z,14.27
2017-09-27T02:59:10.681Z,14.26
2017-09-27T03:01:38.172Z,14.31
2017-09-27T03:04:05.685Z,14.33
2017-09-27T03:06:33.169Z,14.41
2017-09-27T03:09:00.646Z,14.39
2017-09-27T03:11:28.116Z,14.41
2017-09-27T03:13:55.720Z,14.36
2017-09-27T03:16:23.201Z,14.37
2017-09-27T03:18:50.689Z,14.34
2017-09-27T03:21:18.196Z,14.38
2017-09-27T03:23:45.677Z,14.40
2017-09-27T03:26:13.174Z,14.32
2017-09-27T03:28:40.649Z,14.33
2017-09-27T03:31:08.130Z,14.31
2017-09-27T03:33:35.625Z,14.33
2017-09-27T03:36:03.430Z,14.34
2017-09-27T03:38:30.896Z,14.33
2017-09-27T03:40:58.410Z,14.30
2017-09-27T03:43:25.944Z,14.32
2017-09-27T03:45:53.457Z,14.32
2017-09-27T03:48:20.983Z,14.34
2017-09-27T03:50:48.432Z,14.35
2017-09-27T03:53:15.946Z,14.29
2017-09-27T03:55:43.439Z,14.19
2017-09-27T03:58:10.941Z,14.13
2017-09-27T04:00:38.412Z,13.82
2017-09-27T04:03:05.894Z,14.14
2017-09-27T04:05:33.393Z,14.22
2017-09-27T04:08:00.852Z,14.20
2017-09-27T04:10:28.337Z,14.15
2017-09-27T04:12:55.798Z,14.14
2017-09-27T04:15:23.300Z,14.10
2017-09-27T04:17:50.764Z,14.08
2017-09-27T04:20:18.273Z,14.06
2017-09-27T04:22:45.736Z,14.09
2017-09-27T04:25:13.233Z,14.11
2017-09-27T04:27:40.698Z,14.10
2017-09-27T04:30:08.207Z,14.17
2017-09-27T04:32:35.720Z,14.16
2017-09-27T04:35:03.175Z,14.15
2017-09-27T04:37:30.652Z,14.17
2017-09-27T04:39:58.137Z,14.15
2017-09-27T04:42:25.629Z,14.14
2017-09-27T04:44:53.093Z,14.10
2017-09-27T04:47:20.595Z,14.16
2017-09-27T04:49:48.061Z,14.20
2017-09-27T04:52:15.569Z,14.24
2017-09-27T04:54:43.048Z,14.26
2017-09-27T04:57:10.541Z,14.26
2017-09-27T04:59:37.996Z,14.23
2017-09-27T05:02:05.492Z,14.23
2017-09-27T05:04:33.000Z,14.26
2017-09-27T05:07:00.504Z,14.28
2017-09-27T05:09:27.998Z,14.24
2017-09-27T05:11:55.449Z,14.23
2017-09-27T05:14:22.988Z,14.18
2017-09-27T05:16:50.454Z,14.11
2017-09-27T05:19:17.960Z,14.11
2017-09-27T05:21:45.464Z,14.04
2017-09-27T05:24:12.977Z,13.99
2017-09-27T05:26:40.450Z,14.05
2017-09-27T05:29:07.958Z,14.06
2017-09-27T05:31:35.457Z,14.09
2017-09-27T05:34:02.963Z,14.13
2017-09-27T05:36:30.488Z,14.07
2017-09-27T05:38:58.019Z,14.04
2017-09-27T05:41:25.496Z,14.05
2017-09-27T05:43:53.007Z,14.08
2017-09-27T05:46:20.477Z,14.15
2017-09-27T05:48:47.973Z,14.16
2017-09-27T05:51:15.533Z,14.13
2017-09-27T05:53:43.023Z,14.05
2017-09-27T05:56:10.528Z,14.11
2017-09-27T05:58:38.042Z,14.08
2017-09-27T06:01:05.525Z,14.12
2017-09-27T06:03:33.059Z,14.01
2017-09-27T06:06:00.548Z,13.95
2017-09-27T06:08:28.027Z,13.97
2017-09-27T06:10:55.565Z,14.04
2017-09-27T06:13:23.048Z,14.06
2017-09-27T06:15:50.613Z,14.11
2017-09-27T06:18:18.097Z,14.17
2017-09-27T06:20:45.598Z,14.13
2017-09-27T06:23:13.073Z,14.10
2017-09-27T06:25:40.581Z,14.18
2017-09-27T06:28:08.073Z,14.11
2017-09-27T06:30:35.566Z,14.12
2017-09-27T06:33:03.061Z,14.17
2017-09-27T06:35:30.671Z,14.18
2017-09-27T06:37:58.158Z,14.24
2017-09-27T06:40:25.660Z,14.17
2017-09-27T06:42:53.136Z,14.29
2017-09-27T06:45:20.662Z,14.40
2017-09-27T06:47:48.141Z,14.33
2017-09-27T06:50:15.629Z,14.30
2017-09-27T06:52:43.089Z,14.26
2017-09-27T06:55:10.561Z,14.32
2017-09-27T06:57:38.280Z,14.56
2017-09-27T07:00:05.762Z,14.50
2017-09-27T07:02:33.257Z,14.42
2017-09-27T07:05:00.741Z,14.42
2017-09-27T07:07:28.233Z,14.54
2017-09-27T07:09:55.697Z,14.44
2017-09-27T07:12:23.183Z,14.41
2017-09-27T07:14:50.681Z,14.49
2017-09-27T07:17:18.219Z,14.40
2017-09-27T07:19:45.739Z,14.48
2017-09-27T07:22:13.213Z,14.49
2017-09-27T07:24:40.705Z,14.54
2017-09-27T07:27:08.181Z,14.52
2017-09-27T07:29:35.820Z,14.45
2017-09-27T07:32:03.292Z,14.63
2017-09-27T07:34:30.819Z,14.78
2017-09-27T07:36:58.356Z,14.83
2017-09-27T07:39:25.831Z,14.88
2017-09-27T07:41:53.324Z,14.94
2017-09-27T07:44:20.806Z,14.85
2017-09-27T07:46:48.345Z,14.85
2017-09-27T07:49:15.883Z,14.85
2017-09-27T07:51:43.468Z,14.83
2017-09-27T07:54:10.989Z,14.89
2017-09-27T07:56:38.456Z,15.00
2017-09-27T07:59:06.153Z,15.04
2017-09-27T08:01:33.638Z,15.01
2017-09-27T08:04:03.889Z,15.14
2017-09-27T08:06:31.407Z,15.23
2017-09-27T08:08:59.828Z,15.29
2017-09-27T08:11:27.333Z,15.40
2017-09-27T08:13:54.902Z,15.41
2017-09-27T08:16:22.436Z,15.41
2017-09-27T08:18:49.935Z,15.30
2017-09-27T08:21:17.444Z,15.17
2017-09-27T08:23:44.926Z,15.19
2017-09-27T08:26:13.479Z,15.22
2017-09-27T08:28:40.950Z,15.33
2017-09-27T08:31:08.450Z,15.37
2017-09-27T08:33:35.974Z,15.42
2017-09-27T08:36:03.513Z,15.50
2017-09-27T08:38:31.003Z,15.70
2017-09-27T08:40:58.503Z,15.77
2017-09-27T08:43:26.042Z,15.65
2017-09-27T08:45:53.516Z,15.48
2017-09-27T08:48:21.029Z,15.32
2017-09-27T08:50:48.582Z,15.31
2017-09-27T08:53:16.284Z,15.62
2017-09-27T08:55:43.771Z,15.86
2017-09-27T08:58:11.274Z,16.05
2017-09-27T09:00:38.777Z,15.86
2017-09-27T09:03:06.286Z,15.87
2017-09-27T09:05:33.761Z,16.09
2017-09-27T09:08:01.325Z,16.33
2017-09-27T09:10:28.824Z,16.50
2017-09-27T09:12:56.299Z,16.51
2017-09-27T09:15:23.800Z,16.32
2017-09-27T09:17:51.267Z,16.47
2017-09-27T09:20:18.817Z,16.66
2017-09-27T09:22:46.292Z,16.78
2017-09-27T09:25:13.812Z,16.87
2017-09-27T09:27:41.286Z,16.72
2017-09-27T09:30:08.789Z,16.49
2017-09-27T09:32:36.297Z,16.53
2017-09-27T09:35:04.434Z,16.51
2017-09-27T09:37:31.961Z,16.84
2017-09-27T09:39:59.467Z,17.12
2017-09-27T09:42:26.992Z,17.36
2017-09-27T09:44:54.483Z,17.56
2017-09-27T09:47:22.006Z,17.61
2017-09-27T09:49:49.476Z,17.56
2017-09-27T09:52:16.968Z,17.60
2017-09-27T09:54:44.476Z,17.60
2017-09-27T09:57:11.980Z,17.63
2017-09-27T09:59:39.481Z,17.62
2017-09-27T10:02:07.014Z,17.64
2017-09-27T10:04:34.559Z,17.81
2017-09-27T10:07:02.247Z,17.88
2017-09-27T10:09:29.987Z,18.01
2017-09-27T10:11:57.515Z,18.06
2017-09-27T10:14:24.994Z,18.16
2017-09-27T10:16:52.540Z,18.24
2017-09-27T10:19:20.038Z,18.43
2017-09-27T10:21:47.600Z,18.60
2017-09-27T10:24:15.261Z,18.75
2017-09-27T10:26:42.782Z,18.80
2017-09-27T10:29:10.273Z,18.88
2017-09-27T10:31:38.765Z,18.94
2017-09-27T10:34:06.297Z,19.08
2017-09-27T10:36:33.768Z,19.23
2017-09-27T10:39:01.263Z,19.37
2017-09-27T10:41:28.720Z,19.41
2017-09-27T10:43:56.264Z,19.55
2017-09-27T10:46:23.741Z,19.66
2017-09-27T10:48:51.431Z,19.78
2017-09-27T10:51:18.919Z,19.80
2017-09-27T10:53:46.397Z,19.94
2017-09-27T10:56:13.887Z,19.95
2017-09-27T10:58:41.341Z,20.07
2017-09-27T11:01:08.831Z,20.10
2017-09-27T11:03:36.374Z,20.16
2017-09-27T11:06:03.862Z,20.30
2017-09-27T11:08:31.331Z,20.48
2017-09-27T11:10:58.825Z,20.66
2017-09-27T11:13:26.313Z,20.58
2017-09-27T11:15:53.969Z,20.51
2017-09-27T11:18:21.459Z,20.37
2017-09-27T11:20:48.927Z,20.43
2017-09-27T11:23:16.475Z,20.32
2017-09-27T11:25:44.089Z,20.49
2017-09-27T11:28:11.636Z,20.59
2017-09-27T11:30:39.114Z,20.78
2017-09-27T11:33:06.633Z,20.93
2017-09-27T11:35:34.137Z,21.21
2017-09-27T11:38:01.670Z,21.26
2017-09-27T11:40:29.166Z,21.21
2017-09-27T11:42:56.659Z,21.31
2017-09-27T11:45:24.161Z,21.40
2017-09-27T11:47:51.663Z,21.60
2017-09-27T11:50:19.845Z,21.63
2017-09-27T11:52:48.390Z,21.85
2017-09-27T11:55:15.994Z,22.04
2017-09-27T11:57:43.520Z,21.83
2017-09-27T12:00:11.072Z,22.14
2017-09-27T12:02:38.592Z,22.13
2017-09-27T12:05:06.112Z,22.20
2017-09-27T12:07:33.637Z,22.37
2017-09-27T12:10:01.109Z,22.20
2017-09-27T12:12:28.607Z,22.01
2017-09-27T12:14:56.085Z,22.05
2017-09-27T12:17:23.581Z,22.15
2017-09-27T12:19:51.075Z,22.48
2017-09-27T12:22:18.909Z,22.45
2017-09-27T12:24:46.417Z,22.44
2017-09-27T12:27:13.891Z,22.42
2017-09-27T12:29:41.392Z,22.40
2017-09-27T12:32:08.874Z,22.43
2017-09-27T12:34:36.374Z,22.31
2017-09-27T12:37:03.838Z,22.39
2017-09-27T12:39:32.129Z,22.41
2017-09-27T12:41:59.606Z,22.39
2017-09-27T12:44:27.128Z,22.37
2017-09-27T12:46:54.589Z,22.19
2017-09-27T12:49:22.072Z,22.17
2017-09-27T12:51:49.542Z,22.13
2017-09-27T12:54:17.033Z,22.15
2017-09-27T12:56:44.530Z,22.14
2017-09-27T12:59:12.058Z,22.09
2017-09-27T13:01:39.581Z,22.05
2017-09-27T13:04:07.061Z,22.08
2017-09-27T13:06:34.580Z,22.09
2017-09-27T13:09:02.062Z,22.07
2017-09-27T13:11:29.585Z,22.01
2017-09-27T13:13:57.087Z,22.05
2017-09-27T13:16:24.591Z,22.09
2017-09-27T13:18:52.110Z,22.40
2017-09-27T13:21:19.570Z,22.84
2017-09-27T13:23:47.076Z,23.23
2017-09-27T13:26:14.596Z,23.58
2017-09-27T13:28:42.114Z,23.93
2017-09-27T13:31:09.606Z,24.04
2017-09-27T13:33:37.097Z,24.02
2017-09-27T13:36:04.654Z,23.84
2017-09-27T13:38:32.191Z,23.63
2017-09-27T13:40:59.680Z,23.47
2017-09-27T13:43:27.186Z,23.19
2017-09-27T13:45:54.749Z,23.12
2017-09-27T13:48:22.214Z,23.46
2017-09-27T13:50:49.742Z,23.91
2017-09-27T13:53:17.258Z,23.85
2017-09-27T13:55:44.719Z,23.60
2017-09-27T13:58:12.230Z,23.18
2017-09-27T14:00:39.726Z,23.00
2017-09-27T14:03:07.256Z,22.82
2017-09-27T14:05:34.757Z,22.78
2017-09-27T14:08:02.245Z,22.53
2017-09-27T14:10:29.710Z,22.49
2017-09-27T14:12:57.237Z,22.47
2017-09-27T14:15:24.698Z,22.58
2017-09-27T14:17:52.207Z,23.10
2017-09-27T14:20:19.691Z,23.61
2017-09-27T14:22:47.188Z,24.02
2017-09-27T14:25:14.694Z,24.45
2017-09-27T14:27:42.185Z,24.93
2017-09-27T14:30:09.673Z,25.40
2017-09-27T14:32:37.149Z,25.86
2017-09-27T14:35:04.655Z,26.26
2017-09-27T14:37:32.127Z,26.05
2017-09-27T14:39:59.637Z,25.84
2017-09-27T14:42:27.126Z,25.59
2017-09-27T14:44:54.631Z,25.04
2017-09-27T14:47:22.099Z,24.96
2017-09-27T14:49:49.601Z,25.20
2017-09-27T14:52:17.123Z,25.35
2017-09-27T14:54:44.601Z,25.65
2017-09-27T14:57:12.188Z,25.61
2017-09-27T14:59:39.741Z,25.23
2017-09-27T15:02:07.250Z,25.28
2017-09-27T15:04:34.762Z,25.58
2017-09-27T15:07:03.089Z,26.12
2017-09-27T15:09:30.566Z,26.49
2017-09-27T15:11:58.092Z,26.41
2017-09-27T15:14:25.562Z,26.57
2017-09-27T15:16:53.497Z,26.80
2017-09-27T15:19:21.309Z,27.26
2017-09-27T15:21:48.805Z,27.31
2017-09-27T15:24:16.342Z,27.03
2017-09-27T15:26:43.861Z,26.03
2017-09-27T15:29:11.347Z,25.13
2017-09-27T15:31:38.809Z,24.81
2017-09-27T15:34:06.336Z,24.51
2017-09-27T15:36:33.859Z,24.34
2017-09-27T15:39:01.375Z,24.37
2017-09-27T15:41:28.921Z,24.05
2017-09-27T15:43:56.473Z,23.80
2017-09-27T15:46:23.950Z,23.70
2017-09-27T15:48:51.462Z,23.69
2017-09-27T15:51:18.973Z,23.68
2017-09-27T15:53:46.470Z,23.60
2017-09-27T15:56:13.976Z,23.45
2017-09-27T15:58:41.480Z,23.35
2017-09-27T16:01:08.981Z,23.26
2017-09-27T16:03:36.510Z,23.26
2017-09-27T16:06:04.059Z,23.28
2017-09-27T16:08:31.604Z,23.19
2017-09-27T16:10:59.084Z,22.82
2017-09-27T16:13:26.594Z,22.80
2017-09-27T16:15:54.058Z,22.83
2017-09-27T16:18:21.570Z,22.66
2017-09-27T16:20:49.047Z,22.65
2017-09-27T16:23:16.543Z,22.68
2017-09-27T16:25:44.017Z,22.73
2017-09-27T16:28:11.516Z,22.65
2017-09-27T16:30:39.012Z,22.63
2017-09-27T16:33:06.491Z,22.53
2017-09-27T16:35:33.994Z,22.46
2017-09-27T16:38:01.491Z,22.40
2017-09-27T16:40:29.000Z,22.30
2017-09-27T16:42:56.484Z,22.27
2017-09-27T16:45:23.987Z,22.15
2017-09-27T16:47:51.475Z,22.05
2017-09-27T16:50:18.975Z,21.97
2017-09-27T16:52:46.486Z,21.92
2017-09-27T16:55:13.945Z,21.82
2017-09-27T16:57:41.425Z,21.65
2017-09-27T17:00:08.885Z,21.57
2017-09-27T17:02:36.754Z,21.55
2017-09-27T17:05:04.256Z,21.45
2017-09-27T17:07:31.761Z,21.50
2017-09-27T17:10:00.041Z,21.41
2017-09-27T17:12:27.521Z,21.35
2017-09-27T17:14:55.145Z,21.23
2017-09-27T17:17:23.164Z,21.17
2017-09-27T17:19:50.664Z,21.07
2017-09-27T17:22:18.148Z,20.93
2017-09-27T17:24:45.632Z,20.78
2017-09-27T17:27:13.117Z,20.70
2017-09-27T17:29:40.625Z,20.57
2017-09-27T17:32:08.106Z,20.34
2017-09-27T17:34:35.619Z,20.38
2017-09-27T17:37:03.117Z,20.36
2017-09-27T17:39:30.593Z,20.31
2017-09-27T17:41:58.058Z,20.31
2017-09-27T17:44:25.557Z,20.24
2017-09-27T17:46:53.044Z,20.12
2017-09-27T17:49:20.537Z,20.08
2017-09-27T17:51:48.029Z,20.06
2017-09-27T17:54:15.521Z,19.88
2017-09-27T17:56:43.027Z,19.78
2017-09-27T17:59:11.432Z,19.75
2017-09-27T18:01:38.936Z,19.66
2017-09-27T18:07:16.078Z,19.53
2017-09-27T18:09:49.169Z,19.42
2017-09-27T18:12:23.103Z,19.35
2017-09-27T18:14:56.235Z,19.25
2017-09-27T18:17:25.613Z,19.26
2017-09-27T18:19:53.084Z,19.25
2017-09-27T18:22:20.579Z,19.26
2017-09-27T18:24:48.159Z,19.24
2017-09-27T18:27:15.640Z,19.20
2017-09-27T18:29:43.121Z,19.12
2017-09-27T18:32:10.661Z,19.08
2017-09-27T18:34:38.159Z,19.01
2017-09-27T18:37:05.629Z,18.90
2017-09-27T18:39:33.140Z,18.88
2017-09-27T18:42:00.641Z,18.90
2017-09-27T18:44:28.962Z,18.62
2017-09-27T18:46:57.262Z,18.78
2017-09-27T18:49:24.756Z,18.64
2017-09-27T18:51:52.248Z,18.73
2017-09-27T18:54:19.710Z,18.76
2017-09-27T18:56:47.245Z,18.70
2017-09-27T18:59:14.744Z,18.59
2017-09-27T19:01:42.257Z,18.61
2017-09-27T19:04:09.741Z,18.64
2017-09-27T19:06:37.236Z,18.65
2017-09-27T19:09:04.750Z,18.60
2017-09-27T19:11:32.262Z,18.54
2017-09-27T19:13:59.794Z,18.50
2017-09-27T19:16:27.276Z,18.48
2017-09-27T19:18:54.817Z,18.51
2017-09-27T19:21:22.305Z,18.44
2017-09-27T19:23:49.805Z,18.35
2017-09-27T19:26:17.277Z,18.33
2017-09-27T19:28:44.820Z,18.25
2017-09-27T19:31:12.345Z,18.22
2017-09-27T19:33:39.816Z,18.14
2017-09-27T19:36:07.333Z,18.05
2017-09-27T19:38:35.477Z,18.12
2017-09-27T19:41:03.007Z,18.17
2017-09-27T19:43:30.470Z,18.13
2017-09-27T19:45:57.982Z,18.10
2017-09-27T19:48:25.450Z,18.02
2017-09-27T19:50:52.973Z,17.95
2017-09-27T19:53:20.750Z,17.97
2017-09-27T19:55:48.230Z,17.79
2017-09-27T19:58:15.809Z,17.92
2017-09-27T20:00:43.298Z,17.84
2017-09-27T20:03:10.815Z,17.83
2017-09-27T20:05:38.289Z,17.56
2017-09-27T20:08:05.795Z,17.69
2017-09-27T20:10:33.313Z,17.60
2017-09-27T20:13:00.829Z,17.58
2017-09-27T20:15:28.338Z,17.69
2017-09-27T20:17:55.863Z,17.75
2017-09-27T20:20:23.386Z,17.73
2017-09-27T20:22:50.921Z,17.69
2017-09-27T20:25:18.408Z,17.62
2017-09-27T20:27:45.958Z,17.49
2017-09-27T20:30:13.489Z,17.54
2017-09-27T20:32:40.958Z,17.47
2017-09-27T20:35:08.476Z,17.51
2017-09-27T20:37:35.950Z,17.50
2017-09-27T20:40:03.476Z,17.50
2017-09-27T20:42:30.958Z,17.50
2017-09-27T20:44:58.691Z,17.43
2017-09-27T20:47:26.200Z,17.40
2017-09-27T20:49:53.719Z,17.35
2017-09-27T20:52:21.189Z,17.33
2017-09-27T20:54:49.082Z,17.30
2017-09-27T20:57:16.571Z,17.28
2017-09-27T20:59:44.070Z,17.22
2017-09-27T21:02:11.564Z,17.22
2017-09-27T21:04:39.031Z,17.22
2017-09-27T21:07:06.543Z,17.19
2017-09-27T21:09:34.024Z,17.21
2017-09-27T21:12:01.501Z,17.12
2017-09-27T21:14:29.032Z,17.10
2017-09-27T21:16:56.534Z,17.02
2017-09-27T21:19:24.003Z,17.02
2017-09-27T21:21:51.506Z,17.03
2017-09-27T21:24:19.015Z,17.05
2017-09-27T21:26:46.512Z,17.02
2017-09-27T21:29:14.011Z,16.95
2017-09-27T21:31:41.499Z,16.93
2017-09-27T21:34:09.006Z,16.90
2017-09-27T21:36:36.493Z,16.93
2017-09-27T21:39:04.014Z,16.94
2017-09-27T21:41:31.491Z,16.96
2017-09-27T21:43:58.990Z,16.96
2017-09-27T21:46:26.502Z,16.91
2017-09-27T21:48:54.006Z,16.91
2017-09-27T21:51:21.552Z,16.98
2017-09-27T21:53:49.053Z,16.95
2017-09-27T21:56:16.511Z,16.96
2017-09-27T21:58:44.014Z,16.92
2017-09-27T22:01:11.488Z,16.91
2017-09-27T22:03:38.989Z,16.94
2017-09-27T22:06:06.456Z,16.95
2017-09-27T22:08:33.949Z,16.92
2017-09-27T22:11:01.422Z,16.86
2017-09-27T22:13:28.914Z,16.86
2017-09-27T22:15:56.412Z,16.75
2017-09-27T22:18:23.904Z,16.75
2017-09-27T22:20:51.434Z,16.72
2017-09-27T22:23:18.954Z,16.74
2017-09-27T22:25:46.432Z,16.71
2017-09-27T22:28:13.912Z,16.70
2017-09-27T22:30:41.409Z,16.67
2017-09-27T22:33:08.881Z,16.60
2017-09-27T22:35:36.387Z,16.61
2017-09-27T22:38:03.884Z,16.66
2017-09-27T22:40:31.380Z,16.57
2017-09-27T22:42:58.836Z,16.52
2017-09-27T22:45:26.358Z,16.45
2017-09-27T22:47:53.854Z,16.39
2017-09-27T22:50:21.326Z,16.38
2017-09-27T22:52:48.844Z,16.42
2017-09-27T22:55:16.322Z,16.35
2017-09-27T22:57:43.828Z,16.36
2017-09-27T23:00:11.323Z,16.39
2017-09-27T23:02:38.809Z,16.36
2017-09-27T23:05:06.298Z,16.40
2017-09-27T23:07:33.808Z,16.26
2017-09-27T23:10:01.314Z,16.17
2017-09-27T23:12:28.774Z,16.12
2017-09-27T23:14:56.265Z,16.08
2017-09-27T23:17:26.577Z,16.06
2017-09-27T23:19:54.069Z,16.11
2017-09-27T23:22:33.373Z,16.00
2017-09-27T23:25:00.905Z,15.96
2017-09-27T23:27:28.409Z,15.95
2017-09-27T23:29:55.902Z,15.98
2017-09-27T23:32:23.398Z,15.93
2017-09-27T23:34:50.886Z,15.89
2017-09-27T23:37:18.368Z,15.88
2017-09-27T23:39:45.834Z,15.74
2017-09-27T23:42:13.336Z,15.63
2017-09-27T23:44:40.798Z,15.66
2017-09-27T23:47:08.283Z,15.62
2017-09-27T23:49:35.738Z,15.70
2017-09-27T23:52:03.291Z,15.78
2017-09-27T23:54:30.816Z,15.86
2017-09-27T23:56:58.304Z,15.88
2017-09-27T23:59:25.789Z,15.84
